Main page
METAR-TAF:

METAR-TAF

Airports :

Mary International Airport

Mary, Turkmenistan

latitude: 37-36-24N, longitude: 061-54-05E, elevation: 222 m

Current weather observation

The report was made 19 minutes ago, at 16:00 UTC
Wind 4 kt from the North
Temperature 33°C
Humidity 20%
Pressure 1006 hPa
Visibility: 6000 m

METAR: UTAM 281600Z 36004KT 6000 NSC 33/07 Q1006 R88/CLRD70 NOSIG

Time: 21:19 (16:19 UTC)

Forecast

The report was made 5 hours and 49 minutes ago, at 10:30 UTC
Forecast valid from 28 at 12 UTC to 29 at 12 UTC
Wind 14 kt from the North/Northwest with gusts up to 24 kt
Visibility: 4000 m
Scattered clouds at a height of 5000 ft
Low drifting dust
Temporary
from 28 at 12 UTC to 28 at 15 UTC
Wind 12 kt from the North with gusts up to 22 kt
Visibility: 5000 m
at a height of 700 ft

TAF: UTAM 281030Z 2812/2912 33014G24KT 4000 DRDU SCT050 TEMPO 2812/2815 30022G32KT 0800 DS VV007 BCMG 2817/2818 35012G22KT 5000 NSC

Weather observations and forecasts of more than 4000 airports (METAR and TAF reports).

The available stations are represented by yellow and red dots on the map.

Hover mouse over dot to see the name of the station.

Then click to see weather observations and forecasts.

To change the map : click on the green buttons with a black cross to zoom in, on the green button with a dash to zoom out, or on the green arrows for adjacent maps.


METAR-TAF: